.
WxDataArchive / Data Records for 2006-11-11
2006-11-10 November 2006 2006-11-12

Data Records for Saturday, 11 November 2006

Time	Temp	Chill	HIndex	Humid	Dewpt	 Wind 	HiWind	WindDir	Rain 	Barom 
-----	----	-----	------	-----	-----	------	------	-------	-----	----- 
00:00	46.1	46.1	46.1	88	42.7	1	3	22	0.00	29.654 
00:05	46.0	46.0	46.0	88	42.6	0	2	0	0.00	29.654 
00:10	46.0	46.0	46.0	89	42.9	1	4	68	0.00	29.654 
00:15	46.0	46.0	46.0	89	42.9	1	3	112	0.00	29.664 
00:20	45.8	45.8	45.8	88	42.5	1	5	90	0.00	29.664 
00:25	45.8	45.8	45.8	88	42.5	1	3	45	0.00	29.664 
00:30	45.8	45.8	45.8	89	42.7	1	4	112	0.01	29.668 
00:35	45.8	45.8	45.8	89	42.7	1	4	112	0.00	29.668 
00:40	45.7	45.7	45.7	90	42.9	1	5	112	0.00	29.668 
00:45	45.7	45.7	45.7	90	42.9	1	5	90	0.00	29.671 
00:50	45.5	45.5	45.5	91	43.0	0	2	90	0.00	29.671 
00:55	45.5	45.5	45.5	91	43.0	0	1	90	0.00	29.671 
01:00	45.5	45.5	45.5	91	43.0	0	2	90	0.01	29.683 
01:05	45.5	45.5	45.5	91	43.0	1	2	90	0.01	29.683 
01:10	45.4	45.4	45.4	91	42.9	0	2	90	0.02	29.683 
01:15	45.4	45.4	45.4	92	43.2	1	2	90	0.03	29.676 
01:20	45.4	45.4	45.4	92	43.2	1	3	90	0.02	29.676 
01:25	45.2	45.2	45.2	93	43.3	2	4	90	0.03	29.676 
01:30	45.1	45.1	45.1	93	43.2	2	4	90	0.02	29.652 
01:35	44.9	44.9	44.9	93	43.0	1	3	112	0.00	29.652 
01:40	44.9	44.9	44.9	94	43.3	0	3	112	0.01	29.652 
01:45	44.8	44.8	44.8	94	43.2	1	2	112	0.00	29.667 
01:50	44.6	44.6	44.6	94	43.0	2	4	90	0.00	29.667 
01:55	44.6	44.6	44.6	94	43.0	1	3	112	0.00	29.667 
02:00	44.8	44.8	44.8	94	43.2	1	4	90	0.00	29.661 
02:05	44.8	44.8	44.8	94	43.2	0	2	90	0.00	29.661 
02:10	44.9	44.9	44.9	94	43.3	1	4	90	0.00	29.661 
02:15	44.9	44.9	44.9	94	43.3	2	4	315	0.00	29.710 
02:20	44.9	44.9	44.9	94	43.3	1	2	338	0.00	29.710 
02:25	44.9	44.9	44.9	94	43.3	2	5	338	0.00	29.710 
02:30	44.9	44.9	44.9	94	43.3	1	3	315	0.00	29.716 
02:35	44.8	44.8	44.8	94	43.2	1	5	292	0.00	29.716 
02:40	44.6	44.6	44.6	94	43.0	1	5	270	0.00	29.716 
02:45	44.5	44.5	44.5	94	42.9	2	5	292	0.00	29.713 
02:50	44.2	44.2	44.2	93	42.3	1	4	338	0.00	29.713 
02:55	44.1	44.1	44.1	93	42.2	1	3	0	0.00	29.713 
03:00	44.1	44.1	44.1	93	42.2	2	6	292	0.00	29.731 
03:05	43.9	43.9	43.9	93	42.0	0	2	270	0.00	29.731 
03:10	43.8	43.8	43.8	93	41.9	1	3	270	0.00	29.731 
03:15	43.5	43.5	43.5	92	41.3	2	7	22	0.00	29.733 
03:20	43.1	43.1	43.1	92	40.9	1	3	315	0.00	29.733 
03:25	42.8	42.8	42.8	92	40.6	1	5	315	0.00	29.733 
03:30	42.6	42.6	42.6	92	40.4	1	2	338	0.00	29.722 
03:35	42.2	42.2	42.2	92	40.0	2	6	338	0.00	29.722 
03:40	42.1	42.1	42.1	92	39.9	2	5	338	0.00	29.722 
03:45	41.9	41.9	41.9	93	40.0	1	4	0	0.00	29.732 
03:50	41.8	41.8	41.8	93	39.9	1	3	315	0.00	29.732 
03:55	41.6	41.6	41.6	93	39.7	1	2	0	0.01	29.732 
04:00	41.6	41.6	41.6	93	39.7	1	4	0	0.00	29.732 
04:05	41.5	41.5	41.5	94	39.9	1	4	0	0.01	29.732 
04:10	41.3	41.3	41.3	94	39.7	1	5	338	0.00	29.732 
04:15	41.3	41.3	41.3	94	39.7	0	3	338	0.00	29.742 
04:20	41.2	41.2	41.2	94	39.6	1	4	22	0.01	29.742 
04:25	41.2	41.2	41.2	94	39.6	1	3	22	0.00	29.742 
04:30	41.2	41.2	41.2	94	39.6	1	5	0	0.01	29.745 
04:35	41.1	41.1	41.1	94	39.5	1	4	315	0.00	29.745 
04:40	40.9	40.9	40.9	94	39.3	1	2	0	0.00	29.745 
04:45	40.5	40.5	40.5	94	38.9	2	4	0	0.00	29.759 
04:50	40.3	40.3	40.3	94	38.7	1	4	315	0.01	29.759 
04:55	40.3	40.3	40.3	94	38.7	0	2	315	0.00	29.759 
05:00	40.1	40.1	40.1	94	38.5	1	4	22	0.01	29.753 
05:05	40.1	40.1	40.1	94	38.5	0	2	338	0.00	29.753 
05:10	39.8	39.8	39.8	94	38.2	1	5	0	0.01	29.753 
05:15	39.8	39.8	39.8	94	38.2	1	3	22	0.00	29.771 
05:20	39.6	39.6	39.6	94	38.0	1	3	0	0.00	29.771 
05:25	39.6	39.6	39.6	94	38.0	1	3	0	0.00	29.771 
05:30	39.5	39.5	39.5	95	38.2	1	5	338	0.00	29.767 
05:35	39.3	39.3	39.3	94	37.7	1	5	338	0.00	29.767 
05:40	39.2	39.2	39.2	94	37.6	1	5	0	0.00	29.767 
05:45	39.2	39.2	39.2	94	37.6	1	4	0	0.01	29.776 
05:50	39.2	39.2	39.2	94	37.6	1	3	338	0.00	29.776 
05:55	39.2	39.2	39.2	94	37.6	0	2	338	0.00	29.776 
06:00	39.2	39.2	39.2	94	37.6	0	2	338	0.01	29.800 
06:05	39.2	39.2	39.2	94	37.6	0	2	315	0.01	29.800 
06:10	39.2	39.2	39.2	94	37.6	1	3	338	0.01	29.800 
06:15	39.2	39.2	39.2	94	37.6	0	3	338	0.01	29.811 
06:20	39.2	39.2	39.2	94	37.6	0	3	0	0.00	29.811 
06:25	39.2	39.2	39.2	94	37.6	1	4	0	0.01	29.811 
06:30	39.1	39.1	39.1	94	37.5	1	4	0	0.00	29.800 
06:35	39.2	39.2	39.2	94	37.6	0	2	0	0.00	29.800 
06:40	39.1	39.1	39.1	94	37.5	1	2	0	0.00	29.800 
06:45	39.1	39.1	39.1	94	37.5	1	5	338	0.01	29.801 
06:50	39.1	39.1	39.1	94	37.5	1	5	338	0.00	29.801 
06:55	39.1	39.1	39.1	94	37.5	1	3	315	0.00	29.801 
07:00	39.1	39.1	39.1	94	37.5	1	3	338	0.00	29.806 
07:05	39.1	39.1	39.1	95	37.8	1	3	338	0.00	29.806 
07:10	38.9	38.9	38.9	94	37.3	2	5	338	0.00	29.806 
07:15	38.9	38.9	38.9	94	37.3	2	5	0	0.00	29.823 
07:20	38.9	38.9	38.9	94	37.3	2	7	315	0.00	29.823 
07:25	38.8	38.8	38.8	93	37.0	1	4	22	0.00	29.823 
07:30	38.8	38.8	38.8	93	37.0	1	2	338	0.00	29.828 
07:35	38.8	38.8	38.8	92	36.7	1	4	338	0.00	29.828 
07:40	38.6	38.6	38.6	92	36.5	1	4	338	0.00	29.828 
07:45	38.6	38.6	38.6	92	36.5	1	4	338	0.00	29.841 
07:50	38.6	38.6	38.6	92	36.5	2	5	315	0.00	29.841 
07:55	38.5	38.5	38.5	91	36.1	1	5	292	0.00	29.841 
08:00	38.5	38.5	38.5	91	36.1	1	4	338	0.00	29.851 
08:05	38.5	38.5	38.5	92	36.4	1	5	270	0.00	29.851 
08:10	38.5	38.5	38.5	92	36.4	1	4	338	0.01	29.851 
08:15	38.3	38.3	38.3	92	36.2	1	2	292	0.01	29.867 
08:20	38.3	38.3	38.3	93	36.5	1	2	315	0.00	29.867 
08:25	38.2	38.2	38.2	93	36.4	1	3	0	0.00	29.867 
08:30	38.0	38.0	38.0	92	35.9	1	3	338	0.00	29.870 
08:35	38.0	38.0	38.0	92	35.9	1	4	338	0.00	29.870 
08:40	38.0	38.0	38.0	93	36.2	1	3	338	0.00	29.870 
08:45	38.0	38.0	38.0	93	36.2	1	4	315	0.00	29.882 
08:50	37.9	37.9	37.9	93	36.1	1	5	315	0.00	29.882 
08:55	37.9	37.9	37.9	92	35.8	1	5	292	0.00	29.882 
09:00	37.9	37.9	37.9	92	35.8	1	4	292	0.00	29.882 
09:05	37.9	37.9	37.9	92	35.8	2	5	338	0.00	29.882 
09:10	37.9	37.9	37.9	92	35.8	2	5	292	0.00	29.882 
09:15	38.0	38.0	38.0	92	35.9	1	2	338	0.00	29.897 
09:20	38.0	38.0	38.0	91	35.6	1	4	338	0.00	29.897 
09:25	38.0	38.0	38.0	91	35.6	2	6	292	0.00	29.897 
09:30	38.2	38.2	38.2	91	35.8	1	3	315	0.00	29.906 
09:35	38.0	38.0	38.0	91	35.6	2	7	338	0.00	29.906 
09:40	38.0	38.0	38.0	91	35.6	1	4	0	0.00	29.906 
09:45	38.0	38.0	38.0	91	35.6	2	7	338	0.00	29.912 
09:50	38.0	38.0	38.0	91	35.6	1	5	292	0.00	29.912 
09:55	38.2	38.2	38.2	91	35.8	1	4	292	0.00	29.912 
10:00	38.0	38.0	38.0	91	35.6	2	5	338	0.00	29.922 
10:05	38.0	38.0	38.0	90	35.3	2	6	338	0.00	29.922 
10:10	38.0	38.0	38.0	89	35.1	2	5	338	0.00	29.922 
10:15	38.0	38.0	38.0	90	35.3	2	4	0	0.00	29.924 
10:20	38.0	38.0	38.0	90	35.3	1	4	338	0.00	29.924 
10:25	38.0	38.0	38.0	90	35.3	1	5	0	0.00	29.924 
10:30	38.2	38.2	38.2	91	35.8	1	4	0	0.00	29.929 
10:35	38.2	38.2	38.2	90	35.5	1	3	338	0.00	29.929 
10:40	38.2	38.2	38.2	90	35.5	1	5	338	0.00	29.929 
10:45	38.3	38.3	38.3	90	35.6	1	3	338	0.00	29.931 
10:50	38.5	38.5	38.5	90	35.8	1	4	338	0.00	29.931 
10:55	38.5	38.5	38.5	89	35.5	1	4	0	0.00	29.931 
11:00	38.6	38.6	38.6	88	35.4	1	4	338	0.00	29.933 
11:05	38.8	38.8	38.8	88	35.6	1	3	22	0.00	29.933 
11:10	38.6	38.6	38.6	87	35.1	2	7	22	0.00	29.933 
11:15	38.6	38.6	38.6	87	35.1	2	6	0	0.00	29.940 
11:20	38.8	38.8	38.8	87	35.3	2	5	22	0.00	29.940 
11:25	39.1	39.1	39.1	87	35.6	1	3	315	0.00	29.940 
11:30	39.3	39.3	39.3	87	35.8	1	7	0	0.00	29.938 
11:35	39.5	39.5	39.5	86	35.7	2	5	0	0.00	29.938 
11:40	39.5	39.5	39.5	85	35.4	2	10	338	0.00	29.938 
11:45	39.6	39.6	39.6	85	35.5	2	6	0	0.00	29.944 
11:50	39.6	39.6	39.6	86	35.8	1	3	22	0.00	29.944 
11:55	39.8	39.8	39.8	85	35.7	2	5	315	0.00	29.944 
12:00	39.8	39.8	39.8	85	35.7	2	5	315	0.00	29.951 
12:05	39.9	39.9	39.9	84	35.5	1	5	338	0.00	29.951 
12:10	39.9	39.9	39.9	84	35.5	2	7	315	0.00	29.951 
12:15	39.8	39.8	39.8	84	35.4	1	5	338	0.00	29.960 
12:20	39.9	39.9	39.9	84	35.5	1	4	0	0.00	29.960 
12:25	39.9	39.9	39.9	84	35.5	1	3	22	0.00	29.960 
12:30	39.8	39.8	39.8	84	35.4	1	4	338	0.00	29.960 
12:35	39.8	39.8	39.8	84	35.4	1	5	338	0.00	29.960 
12:40	39.8	39.8	39.8	84	35.4	2	6	292	0.00	29.960 
12:45	39.6	39.6	39.6	84	35.2	2	6	338	0.00	29.962 
12:50	39.5	39.5	39.5	84	35.1	1	4	315	0.00	29.962 
12:55	39.3	39.3	39.3	84	34.9	2	6	338	0.00	29.962 
13:00	39.2	39.2	39.2	83	34.5	2	4	338	0.00	29.968 
13:05	39.2	39.2	39.2	84	34.8	2	4	338	0.00	29.968 
13:10	39.2	39.2	39.2	84	34.8	1	4	292	0.00	29.968 
13:15	39.2	39.2	39.2	83	34.5	1	4	338	0.00	29.978 
13:20	39.2	39.2	39.2	84	34.8	2	5	315	0.00	29.978 
13:25	39.1	39.1	39.1	84	34.7	2	5	0	0.00	29.978 
13:30	39.1	39.1	39.1	83	34.4	2	6	315	0.00	29.984 
13:35	39.2	39.2	39.2	84	34.8	1	5	22	0.00	29.984 
13:40	39.2	39.2	39.2	83	34.5	2	7	0	0.00	29.984 
13:45	39.3	39.3	39.3	83	34.6	1	3	338	0.00	29.988 
13:50	39.3	39.3	39.3	83	34.6	1	3	0	0.00	29.988 
13:55	39.5	39.5	39.5	82	34.5	1	3	0	0.00	29.988 
14:00	39.6	39.6	39.6	83	34.9	1	4	292	0.00	29.994 
14:05	39.6	39.6	39.6	83	34.9	1	3	315	0.00	29.994 
14:10	39.5	39.5	39.5	83	34.8	1	4	0	0.00	29.994 
14:15	39.6	39.6	39.6	83	34.9	1	3	0	0.00	29.995 
14:20	39.6	39.6	39.6	83	34.9	1	5	338	0.00	29.995 
14:25	39.8	39.8	39.8	83	35.1	1	4	338	0.00	29.995 
14:30	39.8	39.8	39.8	82	34.8	1	5	338	0.00	29.996 
14:35	39.8	39.8	39.8	82	34.8	1	5	0	0.00	29.996 
14:40	39.9	39.9	39.9	82	34.9	1	5	338	0.00	29.996 
14:45	40.1	40.1	40.1	82	35.1	1	4	292	0.00	30.003 
14:50	40.1	40.1	40.1	80	34.4	2	6	315	0.00	30.003 
14:55	40.1	40.1	40.1	80	34.4	1	7	338	0.00	30.003 
15:00	40.1	40.1	40.1	80	34.4	2	6	0	0.00	30.014 
15:05	40.1	40.1	40.1	80	34.4	2	6	0	0.00	30.014 
15:10	40.1	40.1	40.1	80	34.4	1	5	0	0.00	30.014 
15:15	40.1	40.1	40.1	80	34.4	1	5	22	0.00	30.026 
15:20	40.1	40.1	40.1	80	34.4	2	6	338	0.00	30.026 
15:25	40.1	40.1	40.1	80	34.4	2	6	338	0.00	30.026 
15:30	39.9	39.9	39.9	80	34.2	2	6	292	0.00	30.033 
15:35	39.9	39.9	39.9	80	34.2	2	4	0	0.00	30.033 
15:40	39.9	39.9	39.9	80	34.2	1	6	22	0.00	30.033 
15:45	39.9	39.9	39.9	80	34.2	2	5	315	0.00	30.042 
15:50	39.9	39.9	39.9	79	33.9	2	6	338	0.00	30.042 
15:55	39.9	39.9	39.9	79	33.9	2	5	0	0.00	30.042 
16:00	39.9	39.9	39.9	79	33.9	2	6	338	0.00	30.049 
16:05	39.9	39.9	39.9	80	34.2	1	4	315	0.00	30.049 
16:10	39.9	39.9	39.9	80	34.2	1	4	315	0.00	30.049 
16:15	39.8	39.8	39.8	81	34.5	1	4	315	0.00	30.061 
16:20	39.8	39.8	39.8	80	34.1	2	4	315	0.00	30.061 
16:25	39.8	39.8	39.8	80	34.1	1	3	0	0.00	30.061 
16:30	39.8	39.8	39.8	80	34.1	1	5	338	0.00	30.069 
16:35	39.8	39.8	39.8	80	34.1	1	3	0	0.00	30.069 
16:40	39.8	39.8	39.8	80	34.1	1	4	292	0.00	30.069 
16:45	39.8	39.8	39.8	80	34.1	1	5	315	0.00	30.077 
16:50	39.8	39.8	39.8	80	34.1	1	6	292	0.00	30.077 
16:55	39.8	39.8	39.8	79	33.8	2	5	270	0.00	30.077 
17:00	39.6	39.6	39.6	79	33.6	1	5	338	0.00	30.087 
17:05	39.6	39.6	39.6	78	33.3	2	6	338	0.00	30.087 
17:10	39.6	39.6	39.6	78	33.3	1	4	338	0.00	30.087 
17:15	39.6	39.6	39.6	78	33.3	1	4	22	0.00	30.096 
17:20	39.6	39.6	39.6	77	33.0	1	4	22	0.00	30.096 
17:25	39.5	39.5	39.5	77	32.9	1	4	22	0.00	30.096 
17:30	39.5	39.5	39.5	78	33.2	1	2	0	0.00	30.109 
17:35	39.5	39.5	39.5	78	33.2	0	2	338	0.00	30.109 
17:40	39.5	39.5	39.5	78	33.2	0	2	338	0.00	30.109 
17:45	39.5	39.5	39.5	77	32.9	1	5	22	0.00	30.118 
17:50	39.5	39.5	39.5	77	32.9	2	9	338	0.00	30.118 
17:55	39.5	39.5	39.5	77	32.9	1	5	338	0.00	30.118 
18:00	39.3	39.3	39.3	76	32.4	2	5	0	0.00	30.127 
18:05	39.3	39.3	39.3	76	32.4	2	5	292	0.00	30.127 
18:10	39.3	39.3	39.3	76	32.4	2	4	315	0.00	30.127 
18:15	39.2	39.2	39.2	76	32.3	1	6	0	0.00	30.139 
18:20	39.2	39.2	39.2	76	32.3	1	6	0	0.00	30.139 
18:25	39.2	39.2	39.2	76	32.3	2	7	315	0.00	30.139 
18:30	39.2	39.2	39.2	75	32.0	2	5	0	0.00	30.147 
18:35	39.1	39.1	39.1	74	31.5	2	5	22	0.00	30.147 
18:40	39.1	39.1	39.1	75	31.9	1	3	0	0.00	30.147 
18:45	39.1	39.1	39.1	75	31.9	1	5	22	0.00	30.154 
18:50	39.1	39.1	39.1	76	32.2	0	3	0	0.00	30.154 
18:55	39.1	39.1	39.1	77	32.5	1	3	45	0.00	30.154 
19:00	39.1	39.1	39.1	76	32.2	1	2	338	0.00	30.159 
19:05	38.9	38.9	38.9	76	32.0	1	5	292	0.00	30.159 
19:10	38.9	38.9	38.9	75	31.7	2	5	315	0.00	30.159 
19:15	38.9	38.9	38.9	75	31.7	1	3	0	0.00	30.171 
19:20	38.9	38.9	38.9	75	31.7	1	3	0	0.00	30.171 
19:25	38.9	38.9	38.9	74	31.3	1	5	22	0.00	30.171 
19:30	38.9	38.9	38.9	74	31.3	1	6	0	0.00	30.174 
19:35	38.9	38.9	38.9	74	31.3	1	2	0	0.00	30.174 
19:40	38.9	38.9	38.9	74	31.3	2	7	0	0.00	30.174 
19:45	38.8	38.8	38.8	74	31.2	1	4	0	0.00	30.178 
19:50	38.6	38.6	38.6	74	31.0	2	6	315	0.00	30.178 
19:55	38.6	38.6	38.6	74	31.0	1	3	338	0.00	30.178 
20:00	38.6	38.6	38.6	75	31.4	1	3	315	0.00	30.181 
20:05	38.6	38.6	38.6	75	31.4	1	5	22	0.00	30.181 
20:10	38.5	38.5	38.5	74	30.9	1	4	22	0.00	30.181 
20:15	38.5	38.5	38.5	74	30.9	1	3	0	0.00	30.183 
20:20	38.5	38.5	38.5	74	30.9	1	6	22	0.00	30.183 
20:25	38.5	38.5	38.5	74	30.9	1	4	0	0.00	30.183 
20:30	38.5	38.5	38.5	74	30.9	1	4	22	0.00	30.183 
20:35	38.5	38.5	38.5	75	31.3	1	3	22	0.00	30.183 
20:40	38.5	38.5	38.5	75	31.3	0	2	45	0.00	30.183 
20:45	38.5	38.5	38.5	74	30.9	1	5	45	0.00	30.189 
20:50	38.3	38.3	38.3	74	30.8	1	3	0	0.00	30.189 
20:55	38.3	38.3	38.3	75	31.1	1	3	90	0.00	30.189 
21:00	38.3	38.3	38.3	76	31.4	0	1	22	0.00	30.191 
21:05	38.3	38.3	38.3	75	31.1	1	4	22	0.00	30.191 
21:10	38.3	38.3	38.3	75	31.1	1	4	68	0.00	30.191 
21:15	38.2	38.2	38.2	74	30.7	0	2	338	0.00	30.191 
21:20	38.2	38.2	38.2	74	30.7	0	2	338	0.00	30.191 
21:25	38.2	38.2	38.2	75	31.0	0	1	338	0.00	30.191 
21:30	38.2	38.2	38.2	76	31.3	0	2	338	0.00	30.191 
21:35	38.2	38.2	38.2	76	31.3	1	3	68	0.00	30.191 
21:40	38.0	38.0	38.0	76	31.1	1	5	68	0.00	30.191 
21:45	37.9	37.9	37.9	73	30.0	0	3	338	0.00	30.191 
21:50	37.9	37.9	37.9	74	30.4	0	3	22	0.00	30.191 
21:55	37.9	37.9	37.9	73	30.0	0	3	68	0.00	30.191 
22:00	37.8	37.8	37.8	74	30.3	1	3	90	0.00	30.195 
22:05	37.8	37.8	37.8	75	30.6	0	1	338	0.00	30.195 
22:10	37.8	37.8	37.8	75	30.6	0	2	45	0.00	30.195 
22:15	37.8	37.8	37.8	76	30.9	1	3	45	0.00	30.206 
22:20	37.8	37.8	37.8	75	30.6	0	3	112	0.00	30.206 
22:25	37.6	37.6	37.6	74	30.1	0	2	45	0.00	30.206 
22:30	37.6	37.6	37.6	73	29.7	1	3	0	0.00	30.205 
22:35	37.5	37.5	37.5	72	29.3	0	3	0	0.00	30.205 
22:40	37.5	37.5	37.5	71	29.0	1	2	0	0.00	30.205 
22:45	37.5	37.5	37.5	71	29.0	1	4	0	0.00	30.207 
22:50	37.5	37.5	37.5	71	29.0	1	2	0	0.00	30.207 
22:55	37.3	37.3	37.3	70	28.4	0	2	0	0.00	30.207 
23:00	37.3	37.3	37.3	71	28.8	0	4	22	0.00	30.220 
23:05	37.3	37.3	37.3	71	28.8	0	2	292	0.00	30.220 
23:10	37.2	37.2	37.2	70	28.3	1	4	0	0.00	30.220 
23:15	37.2	37.2	37.2	69	28.0	1	3	0	0.00	30.223 
23:20	37.2	37.2	37.2	70	28.3	0	2	0	0.00	30.223 
23:25	37.2	37.2	37.2	71	28.7	0	2	22	0.00	30.223 
23:30	37.0	37.0	37.0	72	28.8	1	3	0	0.00	30.222 
23:35	37.0	37.0	37.0	70	28.1	1	3	22	0.00	30.222 
23:40	37.0	37.0	37.0	71	28.5	1	3	0	0.00	30.222 
23:45	37.0	37.0	37.0	71	28.5	0	2	338	0.00	30.216 
23:50	37.0	37.0	37.0	72	28.8	0	1	315	0.00	30.216 
23:55	36.9	36.9	36.9	71	28.4	0	2	338	0.00	30.216 

CoCoRaHS
IN-AL-39
A2 Web Hosting
Creative Commons License
GoDaddy
Look for:

loaded 2017-10-16 20:20:26 • last modified 2010-11-18 10:43:29
Privacy PolicyDisclaimer
• wx.awcolley.com is powered by PmWiki v.2002016 •
• all content (unless otherwise noted) © 2017 A W Colley